Time;durP1;ratioP1;P1;durP2;ratioP2;P2;SDS_P1;SDS_P2;PMS_P1;PMS_P2;Temp;Humidity;BMP_temperature;BMP_pressure;BME280_temperature;BME280_humidity;BME280_pressure;Samples;Min_cycle;Max_cycle;Signal;HPM_P1;HPM_P2
2024/01/13 00:00:15;;;;;;;16.15;8.35;;;4.60;96.70;;;;;;5060721;28;20048;-67
2024/01/13 00:02:47;;;;;;;14.13;8.10;;;4.60;96.70;;;;;;5068950;28;20596;-66
2024/01/13 00:05:18;;;;;;;12.75;7.97;;;4.60;96.70;;;;;;5086485;28;20105;-66
2024/01/13 00:07:48;;;;;;;14.02;8.73;;;4.70;96.70;;;;;;5070317;28;20139;-66
2024/01/13 00:10:19;;;;;;;12.90;7.88;;;4.70;96.70;;;;;;5069700;28;20068;-67
2024/01/13 00:12:49;;;;;;;13.80;8.30;;;4.70;96.70;;;;;;5072467;28;20060;-67
2024/01/13 00:15:21;;;;;;;11.02;7.30;;;4.60;96.70;;;;;;5071065;28;20375;-67
2024/01/13 00:17:50;;;;;;;10.75;6.45;;;4.50;96.70;;;;;;5069963;28;20557;-67
2024/01/13 00:20:19;;;;;;;10.38;6.70;;;4.50;96.70;;;;;;5058593;28;20389;-67
2024/01/13 00:22:50;;;;;;;10.55;6.90;;;4.50;96.70;;;;;;5070879;28;20056;-66
2024/01/13 00:25:19;;;;;;;11.23;6.60;;;4.50;96.70;;;;;;5062985;28;20052;-66
2024/01/13 00:27:48;;;;;;;13.05;6.97;;;4.50;96.70;;;;;;5065534;28;20048;-66
2024/01/13 00:30:17;;;;;;;13.82;6.88;;;4.50;96.70;;;;;;5049516;28;20134;-66
2024/01/13 00:32:47;;;;;;;11.68;6.93;;;4.40;96.70;;;;;;5066026;28;20122;-66
2024/01/13 00:35:16;;;;;;;12.75;7.18;;;4.40;96.70;;;;;;5066403;28;20410;-66
2024/01/13 00:37:45;;;;;;;12.63;7.65;;;4.40;96.70;;;;;;5069665;28;20037;-66
2024/01/13 00:40:14;;;;;;;11.45;7.28;;;4.40;96.70;;;;;;5049534;28;20082;-66
2024/01/13 00:42:43;;;;;;;10.25;5.97;;;4.50;96.70;;;;;;5064967;28;20458;-66
2024/01/13 00:45:12;;;;;;;10.50;6.75;;;4.40;96.70;;;;;;5052063;28;20141;-66
2024/01/13 00:47:42;;;;;;;10.23;5.22;;;4.50;96.70;;;;;;5049476;28;20059;-66
2024/01/13 00:50:14;;;;;;;8.45;4.60;;;4.40;96.70;;;;;;5050069;28;20063;-67
2024/01/13 00:52:43;;;;;;;7.40;4.22;;;4.30;96.70;;;;;;5049759;28;20067;-66
2024/01/13 00:55:13;;;;;;;6.57;4.55;;;4.20;96.70;;;;;;5065134;28;20044;-66
2024/01/13 00:57:43;;;;;;;6.95;4.85;;;4.10;96.70;;;;;;5048686;28;20040;-67
2024/01/13 01:00:12;;;;;;;8.00;5.45;;;4.00;96.70;;;;;;5065447;28;20512;-66
2024/01/13 01:02:42;;;;;;;8.88;4.82;;;4.00;96.70;;;;;;5065307;28;20078;-66
2024/01/13 01:05:13;;;;;;;10.43;6.03;;;4.00;96.70;;;;;;5082455;28;20049;-66
2024/01/13 01:07:42;;;;;;;8.45;5.47;;;4.00;96.70;;;;;;5064150;28;20145;-66
2024/01/13 01:10:12;;;;;;;9.88;5.00;;;4.10;96.70;;;;;;5048706;28;20052;-67
2024/01/13 01:12:42;;;;;;;8.15;5.47;;;4.10;96.70;;;;;;5048723;28;20044;-67
2024/01/13 01:15:10;;;;;;;9.30;5.90;;;4.00;96.70;;;;;;5050447;28;20041;-66
2024/01/13 01:17:39;;;;;;;9.25;6.28;;;4.10;96.70;;;;;;5079967;28;20135;-67
2024/01/13 01:20:09;;;;;;;8.63;5.70;;;4.10;96.70;;;;;;5045856;28;20049;-66
2024/01/13 01:22:39;;;;;;;10.75;5.38;;;4.10;96.70;;;;;;5049034;28;20133;-66
2024/01/13 01:25:09;;;;;;;9.65;6.15;;;4.20;96.70;;;;;;5052062;28;20060;-67
2024/01/13 01:27:38;;;;;;;9.93;5.40;;;4.20;96.70;;;;;;5051707;28;20382;-66
2024/01/13 01:30:08;;;;;;;10.23;6.88;;;4.20;96.70;;;;;;5054772;28;20097;-66
2024/01/13 01:32:37;;;;;;;11.88;5.90;;;4.20;96.70;;;;;;5068705;28;20056;-66
2024/01/13 01:35:09;;;;;;;10.68;6.22;;;4.20;96.70;;;;;;5070489;28;20039;-68
2024/01/13 01:37:40;;;;;;;10.48;6.50;;;4.20;96.70;;;;;;5051745;28;20044;-66
2024/01/13 01:40:13;;;;;;;12.07;6.30;;;4.10;96.70;;;;;;5066177;28;20134;-67
2024/01/13 01:42:42;;;;;;;12.00;6.95;;;4.00;96.70;;;;;;5069407;28;20495;-66
2024/01/13 01:45:11;;;;;;;13.98;6.47;;;3.90;96.70;;;;;;5051582;28;20044;-67
2024/01/13 01:47:42;;;;;;;15.73;7.40;;;3.90;96.70;;;;;;5077015;28;20044;-67
2024/01/13 01:50:12;;;;;;;17.15;7.70;;;3.90;96.70;;;;;;5058538;28;20113;-66
2024/01/13 01:52:42;;;;;;;17.70;7.63;;;3.90;96.70;;;;;;5068951;28;20059;-66
2024/01/13 01:55:13;;;;;;;16.55;7.45;;;3.80;96.70;;;;;;5068213;28;20054;-66
2024/01/13 01:57:42;;;;;;;13.70;6.82;;;3.70;96.70;;;;;;5074604;28;21345;-67
2024/01/13 02:00:11;;;;;;;15.32;6.53;;;3.60;96.70;;;;;;5069113;28;20047;-66
2024/01/13 02:02:40;;;;;;;14.35;7.32;;;3.50;96.70;;;;;;5071532;28;20046;-67
2024/01/13 02:05:10;;;;;;;13.25;5.90;;;3.50;96.70;;;;;;5051805;28;20090;-67
2024/01/13 02:07:39;;;;;;;10.63;5.90;;;3.50;96.70;;;;;;5056760;28;20072;-66
2024/01/13 02:10:10;;;;;;;9.75;5.10;;;3.40;96.70;;;;;;5050807;28;20056;-66
2024/01/13 02:12:39;;;;;;;8.82;4.68;;;3.50;96.70;;;;;;5068837;28;20076;-66
2024/01/13 02:15:09;;;;;;;8.18;4.60;;;3.50;96.70;;;;;;5067622;28;20664;-66
2024/01/13 02:17:38;;;;;;;9.48;4.82;;;3.40;96.70;;;;;;5070813;28;20044;-67
2024/01/13 02:20:09;;;;;;;8.65;5.07;;;3.40;96.70;;;;;;5068423;28;20047;-66
2024/01/13 02:22:39;;;;;;;8.85;4.75;;;3.20;96.70;;;;;;5043823;28;20091;-66
2024/01/13 02:25:09;;;;;;;9.75;5.00;;;3.30;96.70;;;;;;5050697;28;20060;-66
2024/01/13 02:27:38;;;;;;;8.60;4.60;;;3.30;96.70;;;;;;5051490;28;20178;-66
2024/01/13 02:30:08;;;;;;;12.77;5.13;;;3.30;96.70;;;;;;5068419;28;20646;-66
2024/01/13 02:32:36;;;;;;;9.32;4.82;;;3.40;96.70;;;;;;5067170;28;20040;-66
2024/01/13 02:35:08;;;;;;;9.15;5.20;;;3.40;96.70;;;;;;5053637;28;20060;-67
2024/01/13 02:37:40;;;;;;;8.48;5.22;;;3.40;96.70;;;;;;5068302;28;20508;-66
2024/01/13 02:40:10;;;;;;;10.73;5.40;;;3.40;96.70;;;;;;5051406;28;20051;-66
2024/01/13 02:42:39;;;;;;;10.55;5.53;;;3.40;96.70;;;;;;5067846;28;20098;-67
2024/01/13 02:45:08;;;;;;;9.38;5.40;;;3.40;96.70;;;;;;5074412;28;20565;-66
2024/01/13 02:47:43;;;;;;;9.32;5.43;;;3.40;96.70;;;;;;5068087;28;20661;-66
2024/01/13 02:50:13;;;;;;;10.10;5.40;;;3.30;96.70;;;;;;5072434;28;20048;-66
2024/01/13 02:52:44;;;;;;;7.55;4.22;;;3.30;96.70;;;;;;5087932;28;20101;-66
2024/01/13 02:55:12;;;;;;;7.85;4.97;;;3.30;96.70;;;;;;5074468;28;20132;-66
2024/01/13 02:57:41;;;;;;;7.45;4.20;;;3.20;96.70;;;;;;5088099;28;20048;-66
2024/01/13 03:00:10;;;;;;;8.68;4.40;;;3.20;96.70;;;;;;5055452;28;20050;-66
2024/01/13 03:02:39;;;;;;;9.18;4.50;;;3.20;96.70;;;;;;5055843;28;20097;-66
2024/01/13 03:05:12;;;;;;;7.80;4.57;;;3.20;96.70;;;;;;5075918;28;20097;-67
2024/01/13 03:07:40;;;;;;;7.88;4.65;;;3.20;96.70;;;;;;5071438;28;20055;-66
2024/01/13 03:10:12;;;;;;;7.25;4.78;;;3.20;96.70;;;;;;5054427;28;20687;-66
2024/01/13 03:12:43;;;;;;;9.68;5.25;;;3.10;96.70;;;;;;5055167;28;20056;-66
2024/01/13 03:15:13;;;;;;;9.40;5.70;;;3.10;96.70;;;;;;5054686;28;20047;-67
2024/01/13 03:17:42;;;;;;;12.95;6.18;;;3.10;96.70;;;;;;5083868;28;20043;-66
2024/01/13 03:20:12;;;;;;;11.77;6.22;;;3.10;96.70;;;;;;5051935;28;20059;-66
2024/01/13 03:22:43;;;;;;;9.18;5.65;;;3.10;96.70;;;;;;5071309;28;20948;-66
2024/01/13 03:25:13;;;;;;;11.23;5.57;;;3.10;96.70;;;;;;5070310;28;20059;-66
2024/01/13 03:27:44;;;;;;;6.63;4.47;;;3.10;96.70;;;;;;5072084;28;20076;-66
2024/01/13 03:30:14;;;;;;;6.75;4.80;;;3.00;96.70;;;;;;5070138;28;20056;-67
2024/01/13 03:32:44;;;;;;;7.97;4.30;;;3.10;96.70;;;;;;5054783;28;20101;-66
2024/01/13 03:35:14;;;;;;;10.88;4.53;;;3.20;96.70;;;;;;5075443;28;20063;-66
2024/01/13 03:37:44;;;;;;;10.05;4.88;;;3.10;96.70;;;;;;5082310;28;20040;-67
2024/01/13 03:40:15;;;;;;;7.53;4.10;;;3.10;96.70;;;;;;5051405;28;20151;-66
2024/01/13 03:42:45;;;;;;;11.70;5.18;;;3.10;96.70;;;;;;5083905;28;20059;-66
2024/01/13 03:45:14;;;;;;;7.30;4.50;;;3.00;96.70;;;;;;5059238;28;20496;-66
2024/01/13 03:47:43;;;;;;;8.80;5.00;;;3.00;96.70;;;;;;5079577;28;20047;-67
2024/01/13 03:50:13;;;;;;;8.05;4.90;;;2.90;96.70;;;;;;5068304;28;20043;-66
2024/01/13 03:52:44;;;;;;;8.60;5.25;;;2.90;96.70;;;;;;5067221;28;20052;-66
2024/01/13 03:55:16;;;;;;;9.18;5.15;;;3.00;96.70;;;;;;5068747;28;20052;-66
2024/01/13 03:57:47;;;;;;;10.15;5.30;;;3.00;96.70;;;;;;5088193;28;20040;-66
2024/01/13 04:00:19;;;;;;;8.23;4.72;;;2.90;96.70;;;;;;5088552;28;20097;-67
2024/01/13 04:02:51;;;;;;;9.10;4.97;;;2.90;96.70;;;;;;5065484;28;20098;-66
2024/01/13 04:05:21;;;;;;;7.75;5.20;;;2.90;96.70;;;;;;5056892;28;20102;-66
2024/01/13 04:07:51;;;;;;;8.80;5.50;;;2.90;96.70;;;;;;5068287;28;20056;-66
2024/01/13 04:10:22;;;;;;;7.35;5.05;;;2.80;96.70;;;;;;5075142;28;20046;-66
2024/01/13 04:12:51;;;;;;;7.95;5.13;;;2.80;96.70;;;;;;5053391;28;20602;-66
2024/01/13 04:15:20;;;;;;;7.88;4.88;;;2.80;96.70;;;;;;5069357;28;20051;-66
2024/01/13 04:17:49;;;;;;;9.75;4.75;;;2.80;96.70;;;;;;5070360;28;20105;-66
2024/01/13 04:20:21;;;;;;;8.23;4.68;;;2.80;96.70;;;;;;5054205;28;20137;-66
2024/01/13 04:22:52;;;;;;;10.18;6.20;;;2.70;96.70;;;;;;5071309;28;20036;-66
2024/01/13 04:25:24;;;;;;;9.00;6.00;;;2.70;96.70;;;;;;5051547;28;20103;-66
2024/01/13 04:27:54;;;;;;;9.23;5.47;;;2.60;96.70;;;;;;5062925;28;20053;-66
2024/01/13 04:30:27;;;;;;;11.05;5.65;;;2.60;96.70;;;;;;5047942;28;20455;-66
2024/01/13 04:32:57;;;;;;;7.55;4.47;;;2.60;96.70;;;;;;5050366;28;20138;-66
2024/01/13 04:35:27;;;;;;;9.90;4.80;;;2.50;96.70;;;;;;5049621;28;20055;-66
2024/01/13 04:37:56;;;;;;;9.90;4.53;;;2.50;96.70;;;;;;5049545;28;20094;-67
2024/01/13 04:40:29;;;;;;;7.82;5.00;;;2.40;96.70;;;;;;5050414;28;20060;-66
2024/01/13 04:42:58;;;;;;;10.43;4.70;;;2.40;96.70;;;;;;5049438;28;20095;-66
2024/01/13 04:45:27;;;;;;;10.30;5.03;;;2.40;96.70;;;;;;5049881;28;20504;-66
2024/01/13 04:47:56;;;;;;;8.00;3.80;;;2.50;96.70;;;;;;5049337;28;20048;-66
2024/01/13 04:50:25;;;;;;;8.57;4.18;;;2.50;96.70;;;;;;5051881;28;20049;-66
2024/01/13 04:52:54;;;;;;;8.75;4.28;;;2.40;96.70;;;;;;5049338;28;20052;-66
2024/01/13 04:55:22;;;;;;;8.10;4.32;;;2.40;96.70;;;;;;5065101;28;20131;-66
2024/01/13 04:57:53;;;;;;;9.02;3.90;;;2.40;96.70;;;;;;5066097;28;20048;-66
2024/01/13 05:00:24;;;;;;;7.03;4.72;;;2.30;96.70;;;;;;5049249;28;20119;-67
2024/01/13 05:02:53;;;;;;;6.63;3.85;;;2.30;96.70;;;;;;5082480;28;20049;-66
2024/01/13 05:05:25;;;;;;;8.52;4.22;;;2.30;96.70;;;;;;5049267;28;20052;-66
2024/01/13 05:07:53;;;;;;;7.68;4.07;;;2.30;96.70;;;;;;5064957;28;20052;-66
2024/01/13 05:10:24;;;;;;;7.53;4.18;;;2.20;96.70;;;;;;5045837;28;20134;-66
2024/01/13 05:12:54;;;;;;;8.57;3.70;;;2.30;96.70;;;;;;5049401;28;20059;-66
2024/01/13 05:15:24;;;;;;;5.80;3.58;;;2.40;96.70;;;;;;5048621;28;20060;-66
2024/01/13 05:17:54;;;;;;;7.25;3.80;;;2.40;96.70;;;;;;5065245;28;20111;-66
2024/01/13 05:20:24;;;;;;;5.70;3.58;;;2.40;96.70;;;;;;5047820;28;20135;-66
2024/01/13 05:22:53;;;;;;;6.65;4.13;;;2.40;96.70;;;;;;5065209;28;20048;-66
2024/01/13 05:25:23;;;;;;;7.63;4.28;;;2.40;96.70;;;;;;5050076;28;20056;-66
2024/01/13 05:27:54;;;;;;;7.30;3.97;;;2.40;96.70;;;;;;5068592;28;20045;-66
2024/01/13 05:30:23;;;;;;;6.55;3.70;;;2.50;96.70;;;;;;5065380;28;20037;-66
2024/01/13 05:32:52;;;;;;;7.10;3.80;;;2.40;96.70;;;;;;5061178;28;20727;-66
2024/01/13 05:35:21;;;;;;;9.85;4.97;;;2.30;96.70;;;;;;5064745;28;20052;-66
2024/01/13 05:37:50;;;;;;;7.00;4.22;;;2.30;96.70;;;;;;5059603;28;20125;-66
2024/01/13 05:40:23;;;;;;;7.28;4.05;;;2.30;96.70;;;;;;5069226;28;20055;-66
2024/01/13 05:42:53;;;;;;;6.50;4.03;;;2.40;96.70;;;;;;5043274;28;20063;-66
2024/01/13 05:45:22;;;;;;;8.45;4.30;;;2.40;96.70;;;;;;5064892;28;20412;-66
2024/01/13 05:47:51;;;;;;;8.65;4.90;;;2.30;96.70;;;;;;5055711;28;20091;-66
2024/01/13 05:50:20;;;;;;;6.80;4.80;;;2.30;96.70;;;;;;5050527;28;20044;-66
2024/01/13 05:52:50;;;;;;;8.45;4.72;;;2.30;96.70;;;;;;5069142;28;20036;-66
2024/01/13 05:55:23;;;;;;;8.25;4.95;;;2.20;96.70;;;;;;5065312;28;20048;-66
2024/01/13 05:57:55;;;;;;;11.88;5.40;;;2.30;96.70;;;;;;5070017;28;20052;-66
2024/01/13 06:00:24;;;;;;;9.40;4.75;;;2.20;96.70;;;;;;5050634;28;20076;-66
2024/01/13 06:02:53;;;;;;;9.63;4.90;;;2.30;96.70;;;;;;5069413;28;20044;-66
2024/01/13 06:05:22;;;;;;;8.25;4.45;;;2.20;96.70;;;;;;5064936;28;20140;-66
2024/01/13 06:07:51;;;;;;;7.47;4.10;;;2.20;96.70;;;;;;5048209;28;20045;-67
2024/01/13 06:10:20;;;;;;;7.35;4.55;;;2.20;96.70;;;;;;5071258;28;20041;-67
2024/01/13 06:12:49;;;;;;;7.13;4.00;;;2.20;96.70;;;;;;5053411;28;20052;-66
2024/01/13 06:15:20;;;;;;;7.20;3.72;;;2.10;96.70;;;;;;5049457;28;20051;-66
2024/01/13 06:17:49;;;;;;;6.50;4.03;;;2.10;96.70;;;;;;5061730;28;20106;-66
2024/01/13 06:20:20;;;;;;;7.05;3.85;;;2.10;96.70;;;;;;5052386;28;20060;-66
2024/01/13 06:22:51;;;;;;;6.90;4.22;;;2.10;96.70;;;;;;5067470;28;20873;-66
2024/01/13 06:25:20;;;;;;;7.10;4.18;;;2.10;96.70;;;;;;5049315;28;20063;-66
2024/01/13 06:27:50;;;;;;;7.53;3.90;;;2.10;96.70;;;;;;5064133;28;20052;-66
2024/01/13 06:30:21;;;;;;;5.88;4.07;;;2.10;96.70;;;;;;5047461;28;20044;-66
2024/01/13 06:32:49;;;;;;;5.88;3.92;;;2.10;96.70;;;;;;5076344;28;20057;-66
2024/01/13 06:35:19;;;;;;;8.68;3.65;;;2.10;96.70;;;;;;5046142;28;20485;-66
2024/01/13 06:37:47;;;;;;;6.80;3.90;;;2.20;96.70;;;;;;5048872;28;20056;-66
2024/01/13 06:40:18;;;;;;;6.05;3.80;;;2.10;96.70;;;;;;5063726;28;20393;-67
2024/01/13 06:42:50;;;;;;;7.90;4.10;;;2.20;96.70;;;;;;5064615;28;20139;-67
2024/01/13 06:45:21;;;;;;;7.60;3.83;;;2.20;96.70;;;;;;5047243;28;20043;-67
2024/01/13 06:47:50;;;;;;;7.15;3.63;;;2.10;96.70;;;;;;5064038;28;20113;-66
2024/01/13 06:50:20;;;;;;;8.35;4.80;;;2.00;96.70;;;;;;5048358;28;20044;-67
2024/01/13 06:52:51;;;;;;;11.48;5.07;;;2.10;96.70;;;;;;5064517;28;20055;-67
2024/01/13 06:55:23;;;;;;;10.23;5.35;;;2.10;96.70;;;;;;5063595;28;20079;-66
2024/01/13 06:57:54;;;;;;;8.90;4.82;;;2.10;96.70;;;;;;5063578;28;20128;-67
2024/01/13 07:00:25;;;;;;;8.95;4.65;;;2.10;96.70;;;;;;5047006;28;20083;-67
2024/01/13 07:02:54;;;;;;;9.45;4.95;;;2.00;96.70;;;;;;5063858;28;20060;-66
2024/01/13 07:05:23;;;;;;;13.73;5.10;;;2.00;96.70;;;;;;5064112;28;20044;-66
2024/01/13 07:07:53;;;;;;;8.90;4.68;;;1.90;96.70;;;;;;5060536;28;20063;-66
2024/01/13 07:10:22;;;;;;;7.88;4.40;;;2.00;96.70;;;;;;5063119;28;20048;-67
2024/01/13 07:12:51;;;;;;;6.82;4.45;;;2.00;96.70;;;;;;5063825;28;20049;-66
2024/01/13 07:15:20;;;;;;;8.00;4.53;;;2.00;96.70;;;;;;5063222;28;20052;-66
2024/01/13 07:17:51;;;;;;;8.63;4.53;;;2.00;96.70;;;;;;5047175;28;20070;-66
2024/01/13 07:20:20;;;;;;;8.55;5.13;;;2.00;96.70;;;;;;5064113;28;20037;-65
2024/01/13 07:22:51;;;;;;;8.65;4.90;;;2.00;96.70;;;;;;5048397;28;20040;-66
2024/01/13 07:25:20;;;;;;;9.80;5.28;;;2.10;96.70;;;;;;5063325;28;20060;-66
2024/01/13 07:27:49;;;;;;;7.28;4.63;;;2.10;96.70;;;;;;5064064;28;20062;-66
2024/01/13 07:30:17;;;;;;;8.60;4.88;;;2.30;96.70;;;;;;5063362;28;20688;-66
2024/01/13 07:32:46;;;;;;;7.95;4.22;;;2.30;96.70;;;;;;5063818;28;20048;-66
2024/01/13 07:35:18;;;;;;;7.50;4.25;;;2.20;96.70;;;;;;5066772;28;20151;-66
2024/01/13 07:37:47;;;;;;;6.97;4.50;;;2.20;96.70;;;;;;5051073;28;20060;-66
2024/01/13 07:40:18;;;;;;;9.73;5.45;;;2.20;96.70;;;;;;5066559;28;20815;-66
2024/01/13 07:42:46;;;;;;;10.75;6.35;;;2.20;96.70;;;;;;5065749;28;20099;-66
2024/01/13 07:45:14;;;;;;;9.35;5.50;;;2.20;96.70;;;;;;5051128;28;20044;-66
2024/01/13 07:47:45;;;;;;;12.05;5.65;;;2.40;96.70;;;;;;5050391;28;20083;-66
2024/01/13 07:50:14;;;;;;;9.63;5.80;;;2.50;96.70;;;;;;5050447;28;20052;-66
2024/01/13 07:52:45;;;;;;;15.70;7.15;;;2.50;96.70;;;;;;5067110;28;20539;-66
2024/01/13 07:55:16;;;;;;;19.02;7.97;;;2.40;96.70;;;;;;5066842;28;20049;-66
2024/01/13 07:57:44;;;;;;;16.67;7.50;;;2.40;96.70;;;;;;5067319;28;20067;-66
2024/01/13 08:00:13;;;;;;;13.90;6.88;;;2.50;96.70;;;;;;5066695;28;20634;-66
2024/01/13 08:02:43;;;;;;;11.82;6.28;;;2.50;96.70;;;;;;5050586;28;20416;-66
2024/01/13 08:05:13;;;;;;;9.70;6.53;;;2.60;96.70;;;;;;5066620;28;20052;-66
2024/01/13 08:07:45;;;;;;;12.38;6.65;;;2.60;96.70;;;;;;5066512;28;20479;-66
2024/01/13 08:10:13;;;;;;;9.57;6.05;;;2.60;96.70;;;;;;5050286;28;20133;-66
2024/01/13 08:12:42;;;;;;;10.60;5.90;;;2.70;96.70;;;;;;5047661;28;20430;-67
2024/01/13 08:15:10;;;;;;;12.10;6.30;;;2.80;96.70;;;;;;5066586;28;20079;-66
2024/01/13 08:17:41;;;;;;;8.05;5.10;;;2.80;96.70;;;;;;5050087;28;20072;-67
2024/01/13 08:20:10;;;;;;;11.18;5.65;;;2.90;96.70;;;;;;5066310;28;20094;-66
2024/01/13 08:22:38;;;;;;;8.57;5.18;;;3.00;96.70;;;;;;5049684;28;20106;-66
2024/01/13 08:25:08;;;;;;;8.10;5.15;;;3.10;96.70;;;;;;5058296;28;20788;-66
2024/01/13 08:27:37;;;;;;;7.07;4.53;;;3.20;96.70;;;;;;5061519;28;20490;-67
2024/01/13 08:30:06;;;;;;;9.88;5.28;;;3.20;96.70;;;;;;5069851;28;20128;-66
2024/01/13 08:32:36;;;;;;;9.25;5.82;;;3.10;96.70;;;;;;5052877;28;20146;-66
2024/01/13 08:35:07;;;;;;;10.50;6.63;;;3.20;96.70;;;;;;5053006;28;20102;-66
2024/01/13 08:37:36;;;;;;;8.90;6.20;;;3.40;96.70;;;;;;5051037;28;20075;-67
2024/01/13 08:40:10;;;;;;;10.30;6.82;;;3.40;96.70;;;;;;5052816;28;20062;-66
2024/01/13 08:42:38;;;;;;;13.40;7.28;;;3.40;96.70;;;;;;5068833;28;20044;-66
2024/01/13 08:45:08;;;;;;;8.45;6.00;;;3.60;96.70;;;;;;5070188;28;20112;-66
2024/01/13 08:47:37;;;;;;;10.82;5.80;;;3.60;96.70;;;;;;5052489;28;20118;-67
2024/01/13 08:50:06;;;;;;;9.15;6.00;;;3.70;96.70;;;;;;5068720;28;20032;-67
2024/01/13 08:52:35;;;;;;;8.70;6.03;;;3.80;96.70;;;;;;5051308;28;20623;-67
2024/01/13 08:55:03;;;;;;;11.73;5.57;;;3.90;96.70;;;;;;5050488;28;20922;-66
2024/01/13 08:57:33;;;;;;;10.20;5.43;;;4.00;96.70;;;;;;5051039;28;20135;-65
2024/01/13 09:00:06;;;;;;;18.83;11.48;;;4.00;96.70;;;;;;5051913;28;20631;-66
2024/01/13 09:02:34;;;;;;;12.02;8.27;;;4.10;96.70;;;;;;5068087;28;20052;-66
2024/01/13 09:05:05;;;;;;;9.07;5.82;;;4.10;96.70;;;;;;5067231;28;20044;-66
2024/01/13 09:07:35;;;;;;;8.98;5.75;;;4.30;96.70;;;;;;5051393;28;20052;-65
2024/01/13 09:10:04;;;;;;;7.55;5.40;;;4.40;96.70;;;;;;5051331;28;20545;-66
2024/01/13 09:12:34;;;;;;;9.20;5.45;;;4.50;96.70;;;;;;5067360;28;20056;-66
2024/01/13 09:15:06;;;;;;;8.20;4.90;;;4.60;96.70;;;;;;5049260;28;20052;-66
2024/01/13 09:17:35;;;;;;;8.77;5.18;;;4.70;96.70;;;;;;5051952;28;20051;-67
2024/01/13 09:20:04;;;;;;;7.57;4.70;;;4.70;96.70;;;;;;5048275;28;20079;-67
2024/01/13 09:22:34;;;;;;;7.32;5.18;;;4.80;96.70;;;;;;5047609;28;20058;-67
2024/01/13 09:25:02;;;;;;;6.80;4.40;;;5.00;96.70;;;;;;5047520;28;20074;-68
2024/01/13 09:27:30;;;;;;;8.88;4.97;;;5.20;96.70;;;;;;5067879;28;20056;-67
2024/01/13 09:30:01;;;;;;;7.20;4.20;;;5.30;96.70;;;;;;5052074;28;20504;-67
2024/01/13 09:32:30;;;;;;;7.30;4.40;;;5.50;96.70;;;;;;5049871;28;20665;-67
2024/01/13 09:34:58;;;;;;;7.80;4.72;;;5.50;96.70;;;;;;5059413;28;20106;-67
2024/01/13 09:37:27;;;;;;;7.10;4.22;;;5.50;96.70;;;;;;5050315;28;20075;-67
2024/01/13 09:39:56;;;;;;;9.55;4.65;;;5.60;96.70;;;;;;5047593;28;20413;-67
2024/01/13 09:42:30;;;;;;;7.55;4.75;;;5.70;96.70;;;;;;5093089;28;20103;-67
2024/01/13 09:45:00;;;;;;;9.10;5.30;;;5.80;96.70;;;;;;5068168;28;20128;-66
2024/01/13 09:47:28;;;;;;;7.43;4.88;;;5.90;96.70;;;;;;5067354;28;20556;-67
2024/01/13 09:49:57;;;;;;;6.80;4.60;;;6.00;96.70;;;;;;5064973;28;20181;-66
2024/01/13 09:52:27;;;;;;;8.57;5.05;;;6.10;96.70;;;;;;5066692;28;20052;-65
2024/01/13 09:55:03;;;;;;;9.07;5.38;;;6.30;96.70;;;;;;5050947;28;20591;-65
2024/01/13 09:57:32;;;;;;;8.80;5.28;;;6.40;96.70;;;;;;5067288;28;20552;-65
2024/01/13 10:00:04;;;;;;;8.13;5.03;;;6.40;96.70;;;;;;5047677;28;20846;-66
2024/01/13 10:02:33;;;;;;;10.25;5.30;;;6.60;96.70;;;;;;5067636;28;20067;-68
2024/01/13 10:05:01;;;;;;;8.82;5.45;;;6.60;96.70;;;;;;5067483;28;20075;-66
2024/01/13 10:07:37;;;;;;;10.23;5.93;;;6.60;96.70;;;;;;5065443;28;20571;-65
2024/01/13 10:10:10;;;;;;;7.75;5.40;;;6.70;96.70;;;;;;5054608;28;20135;-67
2024/01/13 10:12:39;;;;;;;9.82;5.78;;;6.90;96.70;;;;;;5067594;28;20043;-68
2024/01/13 10:15:17;;;;;;;7.97;5.43;;;7.00;96.70;;;;;;5064728;28;20036;-66
2024/01/13 10:17:46;;;;;;;7.78;5.82;;;7.10;96.70;;;;;;5048617;28;20699;-65
2024/01/13 10:20:16;;;;;;;7.90;5.78;;;7.10;96.70;;;;;;5052306;28;20040;-66
2024/01/13 10:22:44;;;;;;;9.27;6.28;;;7.00;96.70;;;;;;5049841;28;20544;-66
2024/01/13 10:25:12;;;;;;;9.32;5.80;;;7.00;96.70;;;;;;5050462;28;20052;-66
2024/01/13 10:27:42;;;;;;;11.45;6.82;;;7.20;96.70;;;;;;5055846;28;20052;-68
2024/01/13 10:30:14;;;;;;;10.80;6.65;;;7.30;96.70;;;;;;5050463;28;20504;-67
2024/01/13 10:32:47;;;;;;;12.52;8.63;;;7.30;96.70;;;;;;5050807;28;20052;-66
2024/01/13 10:35:17;;;;;;;29.65;19.35;;;7.30;96.70;;;;;;5067265;28;20059;-67
2024/01/13 10:37:46;;;;;;;13.05;7.40;;;7.50;96.70;;;;;;5063779;28;20450;-68
2024/01/13 10:40:14;;;;;;;8.70;6.53;;;7.60;96.70;;;;;;5066817;28;20051;-67
2024/01/13 10:42:48;;;;;;;11.95;6.82;;;7.70;96.70;;;;;;5050249;28;20135;-67
2024/01/13 10:45:21;;;;;;;8.68;6.13;;;7.80;96.70;;;;;;5066839;28;20147;-68
2024/01/13 10:47:59;;;;;;;9.65;6.15;;;7.90;96.70;;;;;;5066737;28;20048;-67
2024/01/13 10:50:28;;;;;;;9.88;5.85;;;7.90;96.70;;;;;;5076324;28;20060;-67
2024/01/13 10:53:07;;;;;;;8.13;4.90;;;8.10;96.70;;;;;;5051911;28;20060;-67
2024/01/13 10:55:38;;;;;;;10.30;6.60;;;8.20;96.70;;;;;;5066293;28;20044;-66
2024/01/13 10:58:06;;;;;;;8.82;5.72;;;8.30;96.70;;;;;;5066292;28;20101;-67
2024/01/13 11:00:35;;;;;;;8.88;5.13;;;8.40;96.70;;;;;;5050024;28;20086;-67
2024/01/13 11:03:07;;;;;;;8.55;5.80;;;8.50;96.70;;;;;;5084903;28;20311;-67
2024/01/13 11:05:39;;;;;;;7.10;5.18;;;8.60;96.70;;;;;;5049805;28;20063;-67
2024/01/13 11:08:07;;;;;;;8.00;5.43;;;8.70;96.70;;;;;;5050748;28;20105;-68
2024/01/13 11:10:40;;;;;;;8.15;4.53;;;8.70;96.70;;;;;;5056069;28;20128;-68
2024/01/13 11:13:16;;;;;;;7.53;5.13;;;8.80;96.70;;;;;;5051870;28;20055;-67
2024/01/13 11:15:48;;;;;;;;;;;8.90;96.70;;;;;;5051463;28;20588;-67
2024/01/13 11:18:19;;;;;;;13.05;7.70;;;9.00;96.70;;;;;;5070338;28;19928;-68
2024/01/13 11:21:04;;;;;;;7.85;4.82;;;9.00;96.70;;;;;;5053760;28;20117;-68
2024/01/13 11:23:40;;;;;;;8.25;5.38;;;9.10;96.70;;;;;;5060470;28;20052;-67
2024/01/13 11:26:10;;;;;;;6.75;4.43;;;9.20;96.70;;;;;;5052581;28;20056;-68
2024/01/13 11:28:49;;;;;;;7.93;4.47;;;9.30;96.70;;;;;;5053362;28;20150;-68
2024/01/13 11:31:32;;;;;;;8.02;4.78;;;9.40;96.70;;;;;;5069620;28;20074;-67
2024/01/13 11:34:17;;;;;;;6.25;4.00;;;9.50;96.70;;;;;;5101697;28;20794;-68
2024/01/13 11:36:49;;;;;;;9.48;4.40;;;9.60;96.70;;;;;;5070587;28;20060;-67
2024/01/13 11:39:20;;;;;;;6.47;4.40;;;9.70;96.70;;;;;;5054426;28;20586;-68
2024/01/13 11:41:51;;;;;;;7.75;5.22;;;9.70;96.70;;;;;;5053516;28;20585;-68
2024/01/13 11:44:21;;;;;;;7.20;4.45;;;9.90;96.70;;;;;;5053226;28;20048;-67
2024/01/13 11:47:01;;;;;;;7.57;4.85;;;9.90;96.70;;;;;;5053394;28;20044;-67
2024/01/13 11:49:32;;;;;;;6.60;4.03;;;10.00;96.70;;;;;;5066616;28;20052;-67
2024/01/13 11:52:03;;;;;;;5.10;3.70;;;10.10;96.70;;;;;;5054060;28;20048;-67
2024/01/13 11:54:34;;;;;;;5.78;4.43;;;10.20;96.70;;;;;;5070194;28;20055;-68
2024/01/13 11:57:04;;;;;;;7.40;4.18;;;10.20;96.70;;;;;;5052708;28;20135;-67
2024/01/13 11:59:32;;;;;;;7.32;4.25;;;10.20;96.70;;;;;;5061302;28;20167;-67
2024/01/13 12:02:02;;;;;;;7.28;5.05;;;10.10;96.70;;;;;;5068897;28;20063;-67
2024/01/13 12:04:34;;;;;;;9.13;4.70;;;10.10;96.70;;;;;;5051895;28;20355;-67
2024/01/13 12:07:08;;;;;;;9.25;4.63;;;10.10;96.70;;;;;;5051409;28;20055;-68
2024/01/13 12:09:37;;;;;;;6.75;4.78;;;10.20;96.70;;;;;;5056781;28;20080;-68
2024/01/13 12:12:07;;;;;;;6.03;4.55;;;10.60;96.70;;;;;;5075665;28;20039;-68
2024/01/13 12:14:36;;;;;;;6.00;4.53;;;10.90;96.70;;;;;;5061687;28;20048;-68
2024/01/13 12:17:08;;;;;;;6.47;4.18;;;10.90;96.70;;;;;;5058126;28;20071;-67
2024/01/13 12:19:40;;;;;;;7.15;5.18;;;10.90;96.70;;;;;;5052474;28;20150;-66
2024/01/13 12:22:09;;;;;;;9.23;4.78;;;11.00;96.70;;;;;;5071990;28;20699;-67
2024/01/13 12:24:39;;;;;;;6.15;4.00;;;11.10;96.70;;;;;;5053019;28;20083;-67
2024/01/13 12:27:10;;;;;;;8.98;4.63;;;11.00;96.70;;;;;;5069395;28;20441;-67
2024/01/13 12:29:38;;;;;;;7.00;4.32;;;10.90;96.70;;;;;;5052790;28;20600;-67
2024/01/13 12:32:07;;;;;;;7.63;4.95;;;10.80;96.70;;;;;;5052309;28;20040;-66
2024/01/13 12:34:36;;;;;;;7.13;4.65;;;10.80;96.70;;;;;;5050071;28;20055;-67
2024/01/13 12:37:06;;;;;;;7.55;4.70;;;10.70;96.70;;;;;;5068142;28;20031;-67
2024/01/13 12:39:35;;;;;;;6.53;4.20;;;10.90;96.70;;;;;;5048257;28;20048;-66
2024/01/13 12:42:06;;;;;;;5.53;4.20;;;11.20;96.70;;;;;;5061723;28;20056;-66
2024/01/13 12:44:35;;;;;;;7.50;4.80;;;11.30;96.70;;;;;;5069012;28;20420;-66
2024/01/13 12:47:03;;;;;;;9.57;4.63;;;11.20;96.70;;;;;;5061529;28;20048;-69
2024/01/13 12:49:35;;;;;;;6.82;4.75;;;11.30;96.70;;;;;;5051854;28;20109;-69
2024/01/13 12:52:08;;;;;;;8.63;5.38;;;11.50;96.70;;;;;;5048439;28;20409;-69
2024/01/13 12:54:38;;;;;;;8.45;5.95;;;11.60;96.70;;;;;;5050774;28;20085;-69
2024/01/13 12:57:06;;;;;;;6.57;5.32;;;11.70;96.70;;;;;;5050183;28;20074;-70
2024/01/13 12:59:35;;;;;;;9.45;6.10;;;11.80;96.70;;;;;;5067852;28;20044;-70
2024/01/13 13:02:05;;;;;;;8.10;5.85;;;11.70;96.70;;;;;;5065222;28;20043;-70
2024/01/13 13:04:33;;;;;;;8.20;5.63;;;11.70;96.70;;;;;;5068423;28;20467;-69
2024/01/13 13:07:01;;;;;;;7.90;5.57;;;11.70;96.70;;;;;;5051816;28;20054;-68